sensor_id;sensor_type;location;lat;lon;timestamp;P1;durP1;ratioP1;P2;durP2;ratioP2
49241;SDS011;35079;52.704;13.814;2023-04-23T00:01:22;10.68;;;6.80;;
49241;SDS011;35079;52.704;13.814;2023-04-23T00:03:51;9.70;;;6.43;;
49241;SDS011;35079;52.704;13.814;2023-04-23T00:06:22;8.60;;;6.10;;
49241;SDS011;35079;52.704;13.814;2023-04-23T00:08:50;10.43;;;6.13;;
49241;SDS011;35079;52.704;13.814;2023-04-23T00:11:18;12.05;;;6.88;;
49241;SDS011;35079;52.704;13.814;2023-04-23T00:13:45;10.95;;;6.20;;
49241;SDS011;35079;52.704;13.814;2023-04-23T00:16:13;6.97;;;5.70;;
49241;SDS011;35079;52.704;13.814;2023-04-23T00:18:39;7.60;;;5.97;;
49241;SDS011;35079;52.704;13.814;2023-04-23T00:21:05;8.10;;;5.82;;
49241;SDS011;35079;52.704;13.814;2023-04-23T00:23:32;8.02;;;5.90;;
49241;SDS011;35079;52.704;13.814;2023-04-23T00:25:58;8.25;;;5.88;;
49241;SDS011;35079;52.704;13.814;2023-04-23T00:28:24;10.45;;;6.13;;
49241;SDS011;35079;52.704;13.814;2023-04-23T00:30:49;10.35;;;6.10;;
49241;SDS011;35079;52.704;13.814;2023-04-23T00:33:15;8.02;;;6.10;;
49241;SDS011;35079;52.704;13.814;2023-04-23T00:35:41;8.77;;;6.22;;
49241;SDS011;35079;52.704;13.814;2023-04-23T00:38:06;11.20;;;5.93;;
49241;SDS011;35079;52.704;13.814;2023-04-23T00:40:32;9.02;;;6.63;;
49241;SDS011;35079;52.704;13.814;2023-04-23T00:42:58;10.68;;;6.78;;
49241;SDS011;35079;52.704;13.814;2023-04-23T00:45:24;9.90;;;6.47;;
49241;SDS011;35079;52.704;13.814;2023-04-23T00:47:49;9.40;;;6.60;;
49241;SDS011;35079;52.704;13.814;2023-04-23T00:50:16;8.23;;;5.95;;
49241;SDS011;35079;52.704;13.814;2023-04-23T00:52:42;8.63;;;5.85;;
49241;SDS011;35079;52.704;13.814;2023-04-23T00:55:08;8.70;;;6.07;;
49241;SDS011;35079;52.704;13.814;2023-04-23T00:57:34;9.38;;;6.15;;
49241;SDS011;35079;52.704;13.814;2023-04-23T01:00:02;9.13;;;6.57;;
49241;SDS011;35079;52.704;13.814;2023-04-23T01:02:31;11.45;;;6.50;;
49241;SDS011;35079;52.704;13.814;2023-04-23T01:05:00;8.88;;;6.70;;
49241;SDS011;35079;52.704;13.814;2023-04-23T01:07:27;11.52;;;6.90;;
49241;SDS011;35079;52.704;13.814;2023-04-23T01:09:53;10.35;;;6.57;;
49241;SDS011;35079;52.704;13.814;2023-04-23T01:12:19;14.27;;;6.95;;
49241;SDS011;35079;52.704;13.814;2023-04-23T01:14:45;9.85;;;6.50;;
49241;SDS011;35079;52.704;13.814;2023-04-23T01:17:10;9.77;;;6.03;;
49241;SDS011;35079;52.704;13.814;2023-04-23T01:19:36;9.00;;;6.22;;
49241;SDS011;35079;52.704;13.814;2023-04-23T01:22:07;11.05;;;7.28;;
49241;SDS011;35079;52.704;13.814;2023-04-23T01:24:37;11.63;;;6.93;;
49241;SDS011;35079;52.704;13.814;2023-04-23T01:27:03;13.15;;;6.82;;
49241;SDS011;35079;52.704;13.814;2023-04-23T01:29:30;8.23;;;6.15;;
49241;SDS011;35079;52.704;13.814;2023-04-23T01:31:57;10.60;;;6.82;;
49241;SDS011;35079;52.704;13.814;2023-04-23T01:34:23;8.27;;;6.25;;
49241;SDS011;35079;52.704;13.814;2023-04-23T01:36:49;10.38;;;6.72;;
49241;SDS011;35079;52.704;13.814;2023-04-23T01:39:16;12.80;;;6.97;;
49241;SDS011;35079;52.704;13.814;2023-04-23T01:41:42;10.07;;;6.68;;
49241;SDS011;35079;52.704;13.814;2023-04-23T01:44:07;9.35;;;6.47;;
49241;SDS011;35079;52.704;13.814;2023-04-23T01:46:34;9.27;;;6.25;;
49241;SDS011;35079;52.704;13.814;2023-04-23T01:49:00;14.88;;;6.75;;
49241;SDS011;35079;52.704;13.814;2023-04-23T01:51:26;8.07;;;6.55;;
49241;SDS011;35079;52.704;13.814;2023-04-23T01:53:53;10.75;;;6.50;;
49241;SDS011;35079;52.704;13.814;2023-04-23T01:56:20;9.85;;;6.55;;
49241;SDS011;35079;52.704;13.814;2023-04-23T01:58:49;8.38;;;6.30;;
49241;SDS011;35079;52.704;13.814;2023-04-23T02:01:15;9.07;;;7.07;;
49241;SDS011;35079;52.704;13.814;2023-04-23T02:03:41;10.88;;;6.85;;
49241;SDS011;35079;52.704;13.814;2023-04-23T02:06:07;8.20;;;5.95;;
49241;SDS011;35079;52.704;13.814;2023-04-23T02:08:34;9.18;;;6.40;;
49241;SDS011;35079;52.704;13.814;2023-04-23T02:10:59;10.07;;;6.15;;
49241;SDS011;35079;52.704;13.814;2023-04-23T02:13:25;8.32;;;6.60;;
49241;SDS011;35079;52.704;13.814;2023-04-23T02:15:51;10.48;;;7.13;;
49241;SDS011;35079;52.704;13.814;2023-04-23T02:18:16;7.13;;;6.38;;
49241;SDS011;35079;52.704;13.814;2023-04-23T02:20:42;10.30;;;6.75;;
49241;SDS011;35079;52.704;13.814;2023-04-23T02:23:08;12.95;;;7.00;;
49241;SDS011;35079;52.704;13.814;2023-04-23T02:25:34;8.30;;;6.43;;
49241;SDS011;35079;52.704;13.814;2023-04-23T02:28:02;9.43;;;7.00;;
49241;SDS011;35079;52.704;13.814;2023-04-23T02:30:31;8.30;;;6.40;;
49241;SDS011;35079;52.704;13.814;2023-04-23T02:32:57;9.50;;;6.05;;
49241;SDS011;35079;52.704;13.814;2023-04-23T02:35:23;11.85;;;7.03;;
49241;SDS011;35079;52.704;13.814;2023-04-23T02:37:49;11.45;;;6.60;;
49241;SDS011;35079;52.704;13.814;2023-04-23T02:40:15;8.50;;;6.32;;
49241;SDS011;35079;52.704;13.814;2023-04-23T02:42:41;11.73;;;6.70;;
49241;SDS011;35079;52.704;13.814;2023-04-23T02:45:06;9.82;;;6.60;;
49241;SDS011;35079;52.704;13.814;2023-04-23T02:47:32;12.80;;;7.43;;
49241;SDS011;35079;52.704;13.814;2023-04-23T02:49:58;11.30;;;6.82;;
49241;SDS011;35079;52.704;13.814;2023-04-23T02:52:27;13.20;;;6.85;;
49241;SDS011;35079;52.704;13.814;2023-04-23T02:54:52;9.77;;;7.28;;
49241;SDS011;35079;52.704;13.814;2023-04-23T02:57:18;10.30;;;6.72;;
49241;SDS011;35079;52.704;13.814;2023-04-23T02:59:44;10.82;;;7.32;;
49241;SDS011;35079;52.704;13.814;2023-04-23T03:02:10;14.32;;;7.95;;
49241;SDS011;35079;52.704;13.814;2023-04-23T03:04:35;10.68;;;7.55;;
49241;SDS011;35079;52.704;13.814;2023-04-23T03:07:01;11.68;;;7.30;;
49241;SDS011;35079;52.704;13.814;2023-04-23T03:09:27;9.88;;;7.28;;
49241;SDS011;35079;52.704;13.814;2023-04-23T03:11:52;9.15;;;6.68;;
49241;SDS011;35079;52.704;13.814;2023-04-23T03:14:18;12.75;;;7.53;;
49241;SDS011;35079;52.704;13.814;2023-04-23T03:16:44;8.40;;;6.95;;
49241;SDS011;35079;52.704;13.814;2023-04-23T03:19:10;11.32;;;6.90;;
49241;SDS011;35079;52.704;13.814;2023-04-23T03:21:36;10.95;;;7.32;;
49241;SDS011;35079;52.704;13.814;2023-04-23T03:24:02;10.05;;;7.43;;
49241;SDS011;35079;52.704;13.814;2023-04-23T03:26:27;12.57;;;7.55;;
49241;SDS011;35079;52.704;13.814;2023-04-23T03:28:53;15.05;;;7.10;;
49241;SDS011;35079;52.704;13.814;2023-04-23T03:31:18;10.98;;;7.07;;
49241;SDS011;35079;52.704;13.814;2023-04-23T03:33:44;10.80;;;7.53;;
49241;SDS011;35079;52.704;13.814;2023-04-23T03:36:10;9.18;;;7.72;;
49241;SDS011;35079;52.704;13.814;2023-04-23T03:38:35;13.07;;;8.20;;
49241;SDS011;35079;52.704;13.814;2023-04-23T03:41:01;12.93;;;8.25;;
49241;SDS011;35079;52.704;13.814;2023-04-23T03:43:27;10.38;;;7.47;;
49241;SDS011;35079;52.704;13.814;2023-04-23T03:45:52;11.60;;;8.23;;
49241;SDS011;35079;52.704;13.814;2023-04-23T03:48:18;8.52;;;7.15;;
49241;SDS011;35079;52.704;13.814;2023-04-23T03:50:45;11.73;;;7.80;;
49241;SDS011;35079;52.704;13.814;2023-04-23T03:53:11;13.75;;;8.20;;
49241;SDS011;35079;52.704;13.814;2023-04-23T03:55:36;8.68;;;7.65;;
49241;SDS011;35079;52.704;13.814;2023-04-23T03:58:02;10.65;;;8.93;;
49241;SDS011;35079;52.704;13.814;2023-04-23T04:00:28;13.73;;;8.73;;
49241;SDS011;35079;52.704;13.814;2023-04-23T04:02:53;14.45;;;9.18;;
49241;SDS011;35079;52.704;13.814;2023-04-23T04:05:19;14.88;;;8.85;;
49241;SDS011;35079;52.704;13.814;2023-04-23T04:07:46;12.73;;;8.27;;
49241;SDS011;35079;52.704;13.814;2023-04-23T04:10:11;13.05;;;8.73;;
49241;SDS011;35079;52.704;13.814;2023-04-23T04:12:37;10.02;;;8.48;;
49241;SDS011;35079;52.704;13.814;2023-04-23T04:15:04;12.52;;;8.73;;
49241;SDS011;35079;52.704;13.814;2023-04-23T04:17:30;18.67;;;9.20;;
49241;SDS011;35079;52.704;13.814;2023-04-23T04:19:55;11.48;;;9.07;;
49241;SDS011;35079;52.704;13.814;2023-04-23T04:22:21;15.35;;;9.50;;
49241;SDS011;35079;52.704;13.814;2023-04-23T04:24:46;17.00;;;10.18;;
49241;SDS011;35079;52.704;13.814;2023-04-23T04:27:13;15.07;;;10.77;;
49241;SDS011;35079;52.704;13.814;2023-04-23T04:29:38;14.32;;;9.65;;
49241;SDS011;35079;52.704;13.814;2023-04-23T04:32:07;14.00;;;10.40;;
49241;SDS011;35079;52.704;13.814;2023-04-23T04:34:33;12.15;;;10.07;;
49241;SDS011;35079;52.704;13.814;2023-04-23T04:37:00;13.23;;;10.10;;
49241;SDS011;35079;52.704;13.814;2023-04-23T04:39:25;11.77;;;10.07;;
49241;SDS011;35079;52.704;13.814;2023-04-23T04:41:54;13.43;;;9.70;;
49241;SDS011;35079;52.704;13.814;2023-04-23T04:44:21;15.88;;;9.73;;
49241;SDS011;35079;52.704;13.814;2023-04-23T04:46:47;14.43;;;8.98;;
49241;SDS011;35079;52.704;13.814;2023-04-23T04:49:12;13.85;;;9.38;;
49241;SDS011;35079;52.704;13.814;2023-04-23T04:51:39;14.32;;;9.25;;
49241;SDS011;35079;52.704;13.814;2023-04-23T04:54:05;11.90;;;9.27;;
49241;SDS011;35079;52.704;13.814;2023-04-23T04:56:32;12.85;;;8.65;;
49241;SDS011;35079;52.704;13.814;2023-04-23T04:58:58;11.68;;;8.75;;
49241;SDS011;35079;52.704;13.814;2023-04-23T05:01:24;11.82;;;9.25;;
49241;SDS011;35079;52.704;13.814;2023-04-23T05:03:51;11.30;;;8.80;;
49241;SDS011;35079;52.704;13.814;2023-04-23T05:06:17;14.45;;;8.70;;
49241;SDS011;35079;52.704;13.814;2023-04-23T05:08:43;13.82;;;9.27;;
49241;SDS011;35079;52.704;13.814;2023-04-23T05:11:12;11.90;;;8.70;;
49241;SDS011;35079;52.704;13.814;2023-04-23T05:13:39;14.18;;;8.65;;
49241;SDS011;35079;52.704;13.814;2023-04-23T05:16:05;10.80;;;8.75;;
49241;SDS011;35079;52.704;13.814;2023-04-23T05:18:30;13.13;;;9.57;;
49241;SDS011;35079;52.704;13.814;2023-04-23T05:20:56;13.13;;;10.00;;
49241;SDS011;35079;52.704;13.814;2023-04-23T05:23:22;11.98;;;9.63;;
49241;SDS011;35079;52.704;13.814;2023-04-23T05:25:48;11.90;;;8.75;;
49241;SDS011;35079;52.704;13.814;2023-04-23T05:28:15;11.38;;;8.88;;
49241;SDS011;35079;52.704;13.814;2023-04-23T05:30:41;11.15;;;9.45;;
49241;SDS011;35079;52.704;13.814;2023-04-23T05:33:07;12.45;;;9.65;;
49241;SDS011;35079;52.704;13.814;2023-04-23T05:35:33;13.23;;;8.93;;
49241;SDS011;35079;52.704;13.814;2023-04-23T05:37:58;12.70;;;8.93;;
49241;SDS011;35079;52.704;13.814;2023-04-23T05:40:25;13.35;;;8.57;;
49241;SDS011;35079;52.704;13.814;2023-04-23T05:42:51;11.43;;;8.27;;
49241;SDS011;35079;52.704;13.814;2023-04-23T05:45:16;10.30;;;8.05;;
49241;SDS011;35079;52.704;13.814;2023-04-23T05:47:42;11.73;;;8.05;;
49241;SDS011;35079;52.704;13.814;2023-04-23T05:50:08;9.57;;;7.82;;
49241;SDS011;35079;52.704;13.814;2023-04-23T05:52:35;12.68;;;7.93;;
49241;SDS011;35079;52.704;13.814;2023-04-23T05:55:01;11.55;;;8.05;;
49241;SDS011;35079;52.704;13.814;2023-04-23T05:57:27;10.20;;;8.02;;
49241;SDS011;35079;52.704;13.814;2023-04-23T05:59:52;13.88;;;8.20;;
49241;SDS011;35079;52.704;13.814;2023-04-23T06:02:18;14.07;;;7.82;;
49241;SDS011;35079;52.704;13.814;2023-04-23T06:04:44;10.90;;;8.20;;
49241;SDS011;35079;52.704;13.814;2023-04-23T06:07:09;10.82;;;7.35;;
49241;SDS011;35079;52.704;13.814;2023-04-23T06:09:36;11.38;;;7.70;;
49241;SDS011;35079;52.704;13.814;2023-04-23T06:12:02;10.75;;;7.68;;
49241;SDS011;35079;52.704;13.814;2023-04-23T06:14:27;12.02;;;7.57;;
49241;SDS011;35079;52.704;13.814;2023-04-23T06:16:53;9.32;;;6.82;;
49241;SDS011;35079;52.704;13.814;2023-04-23T06:19:19;11.55;;;8.02;;
49241;SDS011;35079;52.704;13.814;2023-04-23T06:21:45;9.25;;;7.15;;
49241;SDS011;35079;52.704;13.814;2023-04-23T06:24:10;12.35;;;8.15;;
49241;SDS011;35079;52.704;13.814;2023-04-23T06:26:36;13.45;;;8.02;;
49241;SDS011;35079;52.704;13.814;2023-04-23T06:29:02;13.15;;;8.02;;
49241;SDS011;35079;52.704;13.814;2023-04-23T06:31:27;9.02;;;6.75;;
49241;SDS011;35079;52.704;13.814;2023-04-23T06:33:53;10.98;;;8.30;;
49241;SDS011;35079;52.704;13.814;2023-04-23T06:36:19;12.70;;;8.57;;
49241;SDS011;35079;52.704;13.814;2023-04-23T06:38:45;9.48;;;7.50;;
49241;SDS011;35079;52.704;13.814;2023-04-23T06:41:10;12.32;;;7.07;;
49241;SDS011;35079;52.704;13.814;2023-04-23T06:43:37;9.10;;;8.07;;
49241;SDS011;35079;52.704;13.814;2023-04-23T06:46:03;11.05;;;7.63;;
49241;SDS011;35079;52.704;13.814;2023-04-23T06:48:29;10.40;;;7.93;;
49241;SDS011;35079;52.704;13.814;2023-04-23T06:50:56;10.60;;;7.13;;
49241;SDS011;35079;52.704;13.814;2023-04-23T06:53:22;12.32;;;8.48;;
49241;SDS011;35079;52.704;13.814;2023-04-23T06:55:47;12.15;;;7.72;;
49241;SDS011;35079;52.704;13.814;2023-04-23T06:58:15;10.35;;;7.93;;
49241;SDS011;35079;52.704;13.814;2023-04-23T07:00:41;9.18;;;7.72;;
49241;SDS011;35079;52.704;13.814;2023-04-23T07:03:07;12.55;;;8.48;;
49241;SDS011;35079;52.704;13.814;2023-04-23T07:05:32;10.50;;;8.00;;
49241;SDS011;35079;52.704;13.814;2023-04-23T07:07:58;13.85;;;8.50;;
49241;SDS011;35079;52.704;13.814;2023-04-23T07:10:23;12.07;;;7.88;;
49241;SDS011;35079;52.704;13.814;2023-04-23T07:12:49;9.40;;;7.88;;
49241;SDS011;35079;52.704;13.814;2023-04-23T07:15:15;11.30;;;7.55;;
49241;SDS011;35079;52.704;13.814;2023-04-23T07:17:41;12.57;;;8.00;;
49241;SDS011;35079;52.704;13.814;2023-04-23T07:20:06;12.63;;;7.43;;
49241;SDS011;35079;52.704;13.814;2023-04-23T07:22:32;11.02;;;8.73;;
49241;SDS011;35079;52.704;13.814;2023-04-23T07:24:58;12.85;;;8.07;;
49241;SDS011;35079;52.704;13.814;2023-04-23T07:27:25;11.88;;;8.75;;
49241;SDS011;35079;52.704;13.814;2023-04-23T07:29:50;10.63;;;8.50;;
49241;SDS011;35079;52.704;13.814;2023-04-23T07:32:16;11.88;;;7.90;;
49241;SDS011;35079;52.704;13.814;2023-04-23T07:34:42;9.95;;;8.95;;
49241;SDS011;35079;52.704;13.814;2023-04-23T07:37:08;10.57;;;7.70;;
49241;SDS011;35079;52.704;13.814;2023-04-23T07:39:33;11.85;;;8.45;;
49241;SDS011;35079;52.704;13.814;2023-04-23T07:41:59;9.48;;;8.57;;
49241;SDS011;35079;52.704;13.814;2023-04-23T07:44:26;9.70;;;7.68;;
49241;SDS011;35079;52.704;13.814;2023-04-23T07:46:52;11.65;;;8.32;;
49241;SDS011;35079;52.704;13.814;2023-04-23T07:49:17;10.45;;;7.50;;
49241;SDS011;35079;52.704;13.814;2023-04-23T07:51:43;8.98;;;7.97;;
49241;SDS011;35079;52.704;13.814;2023-04-23T07:54:09;11.60;;;7.93;;
49241;SDS011;35079;52.704;13.814;2023-04-23T07:56:35;12.75;;;8.15;;
49241;SDS011;35079;52.704;13.814;2023-04-23T07:59:01;10.75;;;8.18;;
49241;SDS011;35079;52.704;13.814;2023-04-23T08:01:27;13.93;;;8.32;;
49241;SDS011;35079;52.704;13.814;2023-04-23T08:03:53;10.02;;;7.20;;
49241;SDS011;35079;52.704;13.814;2023-04-23T08:06:21;9.57;;;8.25;;
49241;SDS011;35079;52.704;13.814;2023-04-23T08:08:48;14.35;;;8.07;;
49241;SDS011;35079;52.704;13.814;2023-04-23T08:11:14;10.88;;;6.93;;
49241;SDS011;35079;52.704;13.814;2023-04-23T08:13:40;8.85;;;5.88;;
49241;SDS011;35079;52.704;13.814;2023-04-23T08:16:06;7.50;;;5.65;;
49241;SDS011;35079;52.704;13.814;2023-04-23T08:18:31;6.93;;;5.45;;
49241;SDS011;35079;52.704;13.814;2023-04-23T08:20:57;8.05;;;6.00;;
49241;SDS011;35079;52.704;13.814;2023-04-23T08:23:23;8.27;;;5.85;;
49241;SDS011;35079;52.704;13.814;2023-04-23T08:25:49;7.40;;;5.70;;
49241;SDS011;35079;52.704;13.814;2023-04-23T08:28:16;7.38;;;6.30;;
49241;SDS011;35079;52.704;13.814;2023-04-23T08:30:42;7.35;;;5.68;;
49241;SDS011;35079;52.704;13.814;2023-04-23T08:33:08;8.00;;;5.70;;
49241;SDS011;35079;52.704;13.814;2023-04-23T08:35:34;7.43;;;5.57;;
49241;SDS011;35079;52.704;13.814;2023-04-23T08:37:59;7.20;;;5.20;;
49241;SDS011;35079;52.704;13.814;2023-04-23T08:40:25;6.50;;;5.22;;
49241;SDS011;35079;52.704;13.814;2023-04-23T08:43:01;10.07;;;5.68;;
49241;SDS011;35079;52.704;13.814;2023-04-23T08:45:35;8.95;;;6.15;;
49241;SDS011;35079;52.704;13.814;2023-04-23T08:48:05;7.00;;;5.53;;
49241;SDS011;35079;52.704;13.814;2023-04-23T08:50:31;8.70;;;6.30;;
49241;SDS011;35079;52.704;13.814;2023-04-23T08:52:58;14.25;;;6.55;;
49241;SDS011;35079;52.704;13.814;2023-04-23T08:55:24;9.90;;;6.70;;
49241;SDS011;35079;52.704;13.814;2023-04-23T08:57:50;11.32;;;6.53;;
49241;SDS011;35079;52.704;13.814;2023-04-23T09:00:17;8.60;;;6.45;;
49241;SDS011;35079;52.704;13.814;2023-04-23T09:02:45;8.82;;;6.90;;
49241;SDS011;35079;52.704;13.814;2023-04-23T09:05:12;11.32;;;7.15;;
49241;SDS011;35079;52.704;13.814;2023-04-23T09:07:38;8.98;;;6.40;;
49241;SDS011;35079;52.704;13.814;2023-04-23T09:10:05;9.73;;;7.25;;
49241;SDS011;35079;52.704;13.814;2023-04-23T09:12:37;9.68;;;7.28;;
49241;SDS011;35079;52.704;13.814;2023-04-23T09:15:05;8.20;;;6.38;;
49241;SDS011;35079;52.704;13.814;2023-04-23T09:17:35;8.00;;;6.90;;
49241;SDS011;35079;52.704;13.814;2023-04-23T09:20:03;10.25;;;6.20;;
49241;SDS011;35079;52.704;13.814;2023-04-23T09:22:37;10.20;;;6.40;;
49241;SDS011;35079;52.704;13.814;2023-04-23T09:27:34;9.63;;;5.95;;
49241;SDS011;35079;52.704;13.814;2023-04-23T09:30:01;8.30;;;5.55;;
49241;SDS011;35079;52.704;13.814;2023-04-23T09:32:31;7.97;;;6.60;;
49241;SDS011;35079;52.704;13.814;2023-04-23T09:34:58;6.05;;;5.47;;
49241;SDS011;35079;52.704;13.814;2023-04-23T09:37:25;6.70;;;5.90;;
49241;SDS011;35079;52.704;13.814;2023-04-23T09:39:51;8.10;;;6.07;;
49241;SDS011;35079;52.704;13.814;2023-04-23T09:42:22;7.88;;;5.50;;
49241;SDS011;35079;52.704;13.814;2023-04-23T09:45:06;8.95;;;6.40;;
49241;SDS011;35079;52.704;13.814;2023-04-23T09:47:38;8.23;;;5.95;;
49241;SDS011;35079;52.704;13.814;2023-04-23T09:50:06;6.38;;;5.43;;
49241;SDS011;35079;52.704;13.814;2023-04-23T09:52:37;7.35;;;5.65;;
49241;SDS011;35079;52.704;13.814;2023-04-23T09:55:04;6.57;;;5.50;;
49241;SDS011;35079;52.704;13.814;2023-04-23T09:57:36;8.05;;;5.38;;
49241;SDS011;35079;52.704;13.814;2023-04-23T10:00:12;9.57;;;6.07;;
49241;SDS011;35079;52.704;13.814;2023-04-23T10:02:44;10.20;;;6.35;;
49241;SDS011;35079;52.704;13.814;2023-04-23T10:05:18;7.13;;;5.90;;
49241;SDS011;35079;52.704;13.814;2023-04-23T10:07:46;9.57;;;6.82;;
49241;SDS011;35079;52.704;13.814;2023-04-23T10:10:15;8.43;;;6.47;;
49241;SDS011;35079;52.704;13.814;2023-04-23T10:12:45;10.38;;;7.07;;
49241;SDS011;35079;52.704;13.814;2023-04-23T10:15:12;8.45;;;7.15;;
49241;SDS011;35079;52.704;13.814;2023-04-23T10:17:39;12.60;;;8.25;;
49241;SDS011;35079;52.704;13.814;2023-04-23T10:20:05;9.48;;;7.00;;
49241;SDS011;35079;52.704;13.814;2023-04-23T10:22:33;10.90;;;7.85;;
49241;SDS011;35079;52.704;13.814;2023-04-23T10:25:05;13.98;;;8.25;;
49241;SDS011;35079;52.704;13.814;2023-04-23T10:27:36;10.95;;;9.02;;
49241;SDS011;35079;52.704;13.814;2023-04-23T10:30:04;12.50;;;8.60;;
49241;SDS011;35079;52.704;13.814;2023-04-23T10:32:35;11.80;;;10.00;;
49241;SDS011;35079;52.704;13.814;2023-04-23T10:35:02;13.80;;;10.80;;
49241;SDS011;35079;52.704;13.814;2023-04-23T10:37:28;15.60;;;11.82;;
49241;SDS011;35079;52.704;13.814;2023-04-23T10:39:55;14.95;;;12.50;;
49241;SDS011;35079;52.704;13.814;2023-04-23T10:42:28;12.98;;;11.68;;
49241;SDS011;35079;52.704;13.814;2023-04-23T10:44:54;13.73;;;10.25;;
49241;SDS011;35079;52.704;13.814;2023-04-23T10:47:23;8.63;;;7.18;;
49241;SDS011;35079;52.704;13.814;2023-04-23T10:49:48;7.70;;;6.88;;
49241;SDS011;35079;52.704;13.814;2023-04-23T10:52:16;6.90;;;5.50;;
49241;SDS011;35079;52.704;13.814;2023-04-23T10:54:43;5.93;;;4.60;;
49241;SDS011;35079;52.704;13.814;2023-04-23T10:57:12;6.10;;;4.70;;
49241;SDS011;35079;52.704;13.814;2023-04-23T10:59:39;6.47;;;4.95;;
49241;SDS011;35079;52.704;13.814;2023-04-23T11:02:15;6.10;;;4.72;;
49241;SDS011;35079;52.704;13.814;2023-04-23T11:04:45;5.05;;;4.20;;
49241;SDS011;35079;52.704;13.814;2023-04-23T11:07:18;5.93;;;4.53;;
49241;SDS011;35079;52.704;13.814;2023-04-23T11:09:47;5.07;;;4.57;;
49241;SDS011;35079;52.704;13.814;2023-04-23T11:14:48;5.30;;;4.65;;
49241;SDS011;35079;52.704;13.814;2023-04-23T11:17:20;5.40;;;4.32;;
49241;SDS011;35079;52.704;13.814;2023-04-23T11:22:34;4.20;;;3.80;;
49241;SDS011;35079;52.704;13.814;2023-04-23T11:25:02;4.45;;;4.05;;
49241;SDS011;35079;52.704;13.814;2023-04-23T11:27:28;5.00;;;4.00;;
49241;SDS011;35079;52.704;13.814;2023-04-23T11:29:55;5.10;;;3.47;;
49241;SDS011;35079;52.704;13.814;2023-04-23T11:32:21;4.53;;;3.60;;
49241;SDS011;35079;52.704;13.814;2023-04-23T11:34:48;3.78;;;3.38;;
49241;SDS011;35079;52.704;13.814;2023-04-23T11:37:15;3.83;;;3.53;;
49241;SDS011;35079;52.704;13.814;2023-04-23T11:39:42;4.63;;;3.67;;
49241;SDS011;35079;52.704;13.814;2023-04-23T11:42:09;3.85;;;3.53;;
49241;SDS011;35079;52.704;13.814;2023-04-23T11:44:39;4.32;;;3.38;;
49241;SDS011;35079;52.704;13.814;2023-04-23T11:47:06;3.72;;;3.28;;
49241;SDS011;35079;52.704;13.814;2023-04-23T11:49:35;3.90;;;3.50;;
49241;SDS011;35079;52.704;13.814;2023-04-23T11:52:02;4.55;;;3.72;;
49241;SDS011;35079;52.704;13.814;2023-04-23T11:54:28;3.70;;;3.30;;
49241;SDS011;35079;52.704;13.814;2023-04-23T11:56:54;4.60;;;3.60;;
49241;SDS011;35079;52.704;13.814;2023-04-23T11:59:21;3.50;;;3.15;;
49241;SDS011;35079;52.704;13.814;2023-04-23T12:01:49;2.90;;;2.60;;
49241;SDS011;35079;52.704;13.814;2023-04-23T12:04:18;3.10;;;2.80;;
49241;SDS011;35079;52.704;13.814;2023-04-23T12:06:46;3.20;;;2.95;;
49241;SDS011;35079;52.704;13.814;2023-04-23T12:09:13;5.40;;;2.92;;
49241;SDS011;35079;52.704;13.814;2023-04-23T12:11:41;3.47;;;2.97;;
49241;SDS011;35079;52.704;13.814;2023-04-23T12:14:08;2.75;;;2.53;;
49241;SDS011;35079;52.704;13.814;2023-04-23T12:16:35;2.67;;;2.47;;
49241;SDS011;35079;52.704;13.814;2023-04-23T12:19:12;2.90;;;2.35;;
49241;SDS011;35079;52.704;13.814;2023-04-23T12:22:13;3.80;;;3.20;;
49241;SDS011;35079;52.704;13.814;2023-04-23T12:24:45;3.45;;;3.05;;
49241;SDS011;35079;52.704;13.814;2023-04-23T12:27:14;6.55;;;3.00;;
49241;SDS011;35079;52.704;13.814;2023-04-23T12:29:44;3.72;;;3.00;;
49241;SDS011;35079;52.704;13.814;2023-04-23T12:32:11;4.20;;;3.20;;
49241;SDS011;35079;52.704;13.814;2023-04-23T12:34:50;3.45;;;3.15;;
49241;SDS011;35079;52.704;13.814;2023-04-23T12:37:23;3.78;;;2.95;;
49241;SDS011;35079;52.704;13.814;2023-04-23T12:39:50;3.55;;;3.25;;
49241;SDS011;35079;52.704;13.814;2023-04-23T12:42:17;3.00;;;2.70;;
49241;SDS011;35079;52.704;13.814;2023-04-23T12:44:42;2.90;;;2.30;;
49241;SDS011;35079;52.704;13.814;2023-04-23T12:47:09;2.97;;;2.40;;
49241;SDS011;35079;52.704;13.814;2023-04-23T12:49:35;2.58;;;2.38;;
49241;SDS011;35079;52.704;13.814;2023-04-23T12:52:04;2.30;;;2.03;;
49241;SDS011;35079;52.704;13.814;2023-04-23T12:54:33;4.45;;;2.67;;
49241;SDS011;35079;52.704;13.814;2023-04-23T12:57:05;2.55;;;2.25;;
49241;SDS011;35079;52.704;13.814;2023-04-23T12:59:32;2.20;;;2.05;;
49241;SDS011;35079;52.704;13.814;2023-04-23T13:01:58;2.47;;;2.28;;
49241;SDS011;35079;52.704;13.814;2023-04-23T13:04:31;2.10;;;2.00;;
49241;SDS011;35079;52.704;13.814;2023-04-23T13:06:58;2.00;;;1.90;;
49241;SDS011;35079;52.704;13.814;2023-04-23T13:09:24;1.88;;;1.70;;
49241;SDS011;35079;52.704;13.814;2023-04-23T13:11:51;1.60;;;1.50;;
49241;SDS011;35079;52.704;13.814;2023-04-23T13:14:18;2.35;;;1.50;;
49241;SDS011;35079;52.704;13.814;2023-04-23T13:16:43;1.60;;;1.50;;
49241;SDS011;35079;52.704;13.814;2023-04-23T13:19:09;1.48;;;1.38;;
49241;SDS011;35079;52.704;13.814;2023-04-23T13:21:36;1.30;;;1.20;;
49241;SDS011;35079;52.704;13.814;2023-04-23T13:24:02;1.50;;;1.40;;
49241;SDS011;35079;52.704;13.814;2023-04-23T13:26:28;2.20;;;1.38;;
49241;SDS011;35079;52.704;13.814;2023-04-23T13:28:56;1.30;;;1.30;;
49241;SDS011;35079;52.704;13.814;2023-04-23T13:31:22;1.95;;;1.42;;
49241;SDS011;35079;52.704;13.814;2023-04-23T13:33:47;1.77;;;1.10;;
49241;SDS011;35079;52.704;13.814;2023-04-23T13:36:13;1.10;;;1.00;;
49241;SDS011;35079;52.704;13.814;2023-04-23T13:38:39;1.50;;;1.40;;
49241;SDS011;35079;52.704;13.814;2023-04-23T13:41:04;1.80;;;1.70;;
49241;SDS011;35079;52.704;13.814;2023-04-23T13:43:30;1.90;;;1.67;;
49241;SDS011;35079;52.704;13.814;2023-04-23T13:45:56;1.58;;;1.48;;
49241;SDS011;35079;52.704;13.814;2023-04-23T13:48:21;1.63;;;1.52;;
49241;SDS011;35079;52.704;13.814;2023-04-23T13:50:52;2.08;;;1.70;;
49241;SDS011;35079;52.704;13.814;2023-04-23T13:53:19;1.85;;;1.70;;
49241;SDS011;35079;52.704;13.814;2023-04-23T13:55:44;4.18;;;2.75;;
49241;SDS011;35079;52.704;13.814;2023-04-23T13:58:10;3.03;;;2.55;;
49241;SDS011;35079;52.704;13.814;2023-04-23T14:00:36;3.20;;;2.95;;
49241;SDS011;35079;52.704;13.814;2023-04-23T14:03:02;3.88;;;3.00;;
49241;SDS011;35079;52.704;13.814;2023-04-23T14:05:29;3.15;;;2.85;;
49241;SDS011;35079;52.704;13.814;2023-04-23T14:07:55;3.30;;;3.00;;
49241;SDS011;35079;52.704;13.814;2023-04-23T14:10:20;3.45;;;3.08;;
49241;SDS011;35079;52.704;13.814;2023-04-23T14:12:46;3.30;;;2.72;;
49241;SDS011;35079;52.704;13.814;2023-04-23T14:15:13;2.63;;;2.42;;
49241;SDS011;35079;52.704;13.814;2023-04-23T14:17:39;2.92;;;2.63;;
49241;SDS011;35079;52.704;13.814;2023-04-23T14:20:07;3.30;;;3.00;;
49241;SDS011;35079;52.704;13.814;2023-04-23T14:22:33;2.88;;;2.60;;
49241;SDS011;35079;52.704;13.814;2023-04-23T14:25:09;3.08;;;2.80;;
49241;SDS011;35079;52.704;13.814;2023-04-23T14:27:44;3.03;;;2.75;;
49241;SDS011;35079;52.704;13.814;2023-04-23T14:30:14;4.65;;;3.35;;
49241;SDS011;35079;52.704;13.814;2023-04-23T14:32:42;3.58;;;3.05;;
49241;SDS011;35079;52.704;13.814;2023-04-23T14:35:09;3.72;;;3.40;;